map of PBM home
Great Circle Mapper logo
PBM - Airport
Location
City:  Paramaribo, Para, Suriname
Near (Alt.):Zanderij, Zandery
Name:Johan Adolf Pengel International Airport
Old (Alt.):Paramaribo-Zanderij International Airport
ICAO:SMJP
IATA:PBM

Details
Type:Airport (Aerodrome, Airfield)
Use:Public/Civil, International (customs port of entry)
Latitude:527'10"N (5.452831)
Longitude:5511'16"W (-55.187782)
Datum:WGS 1984
Elevation:59 ft (18 m)
Variation:17.49W (WMM2015 magnetic declination)
-0.04 annual change
Runways:1
Longest:11417 × 148 ft (3480 × 45 m), paved

Time
Time Zone:UTC-3
Local Time:

Weather
METAR:SMJP 051900Z 02006KT 9999 -TSRA FEW010 FEW015CB SCT020 30/25 Q1009 TEMPO 5000 TSRA METAR SMZO 051900Z 04010KT 9999 VCSH SCT015 FEW018CB SCT030 29/24 Q1010 NOSIG

Related Locations
Nearby:
Farthest:TQQ: 12381 mi / 19925 km
Tomia (Pulau Tomea) [Maranggo Airport], Wakatobi Island, SG, ID

Find:

   beyond  
but within

Other Information
Maps:
NOTAMs:
Links:
Sources:

  
flag of Suriname   

Sectional Chart

Flight Planning
at skyvector.com

Satellite Image

Google Maps Satellite view

 

Copyright © 2004-2016 Karl L. Swartz. All rights reserved.
The Great Circle Mapper name and logo are trademarks of the Great Circle Mapper.
All other trademarks mentioned herein belong to their respective owners.
Please see credits for attibutions and further copyright information.

  Follow gcmap on Facebook Follow gcmap on Twitter Follow gcmap on Google+ GCmap on LinkedIn

hCard Microformat

Geo Microformat